createdAt,value
2017-11-15T00:00:10.305Z,39.53
2017-11-15T00:02:36.605Z,38.97
2017-11-15T00:05:03.662Z,38.60
2017-11-15T00:07:29.938Z,41.03
2017-11-15T00:09:56.239Z,39.80
2017-11-15T00:12:22.551Z,42.23
2017-11-15T00:14:49.584Z,41.70
2017-11-15T00:17:16.604Z,40.27
2017-11-15T00:19:43.683Z,42.10
2017-11-15T00:22:10.407Z,45.67
2017-11-15T00:24:36.864Z,45.30
2017-11-15T00:27:03.151Z,46.07
2017-11-15T00:29:29.452Z,44.00
2017-11-15T00:31:55.749Z,44.97
2017-11-15T00:34:22.804Z,47.23
2017-11-15T00:36:49.123Z,47.50
2017-11-15T00:39:15.451Z,46.27
2017-11-15T00:41:42.532Z,49.37
2017-11-15T00:44:08.852Z,45.80
2017-11-15T00:46:35.193Z,47.17
2017-11-15T00:49:01.512Z,47.70
2017-11-15T00:51:27.827Z,48.93
2017-11-15T00:53:54.880Z,44.30
2017-11-15T00:56:21.204Z,47.90
2017-11-15T00:58:48.228Z,49.27
2017-11-15T01:01:15.292Z,51.73
2017-11-15T01:03:42.328Z,50.53
2017-11-15T01:06:08.658Z,46.97
2017-11-15T01:08:34.974Z,50.10
2017-11-15T01:11:02.048Z,48.43
2017-11-15T01:13:28.359Z,49.83
2017-11-15T01:15:55.461Z,48.60
2017-11-15T01:18:21.771Z,48.67
2017-11-15T01:20:48.080Z,48.97
2017-11-15T01:23:15.138Z,47.37
2017-11-15T01:25:41.448Z,52.27
2017-11-15T01:28:08.497Z,49.27
2017-11-15T01:30:35.546Z,49.40
2017-11-15T01:33:02.620Z,50.83
2017-11-15T01:35:28.937Z,46.90
2017-11-15T01:37:55.248Z,47.70
2017-11-15T01:40:22.286Z,50.60
2017-11-15T01:42:48.599Z,49.77
2017-11-15T01:45:15.672Z,49.10
2017-11-15T01:47:42.764Z,45.57
2017-11-15T01:50:09.065Z,46.57
2017-11-15T01:52:36.122Z,49.40
2017-11-15T01:55:02.437Z,46.70
2017-11-15T01:57:29.514Z,50.90
2017-11-15T01:59:55.837Z,46.80
2017-11-15T02:02:22.156Z,46.37
2017-11-15T02:04:48.484Z,43.80
2017-11-15T02:07:15.302Z,43.30
2017-11-15T02:09:41.934Z,48.17
2017-11-15T02:12:08.236Z,44.77
2017-11-15T02:14:34.573Z,45.00
2017-11-15T02:17:00.885Z,45.07
2017-11-15T02:19:27.232Z,45.77
2017-11-15T02:21:53.555Z,45.00
2017-11-15T02:24:19.895Z,42.77
2017-11-15T02:26:47.690Z,44.07
2017-11-15T02:29:14.782Z,42.50
2017-11-15T02:31:41.113Z,43.47
2017-11-15T02:34:07.464Z,43.13
2017-11-15T02:36:33.828Z,44.87
2017-11-15T02:39:00.918Z,46.73
2017-11-15T02:41:27.350Z,45.70
2017-11-15T02:43:53.690Z,45.70
2017-11-15T02:46:20.008Z,46.50
2017-11-15T02:48:46.340Z,47.30
2017-11-15T02:51:12.643Z,48.47
2017-11-15T02:53:38.965Z,47.70
2017-11-15T02:56:05.296Z,48.80
2017-11-15T02:58:31.643Z,48.97
2017-11-15T03:00:57.953Z,46.97
2017-11-15T03:03:25.006Z,45.60
2017-11-15T03:05:51.339Z,45.63
2017-11-15T03:08:18.912Z,44.40
2017-11-15T03:10:45.281Z,44.33
2017-11-15T03:13:11.605Z,41.87
2017-11-15T03:15:37.947Z,44.30
2017-11-15T03:18:04.263Z,42.10
2017-11-15T03:20:31.396Z,43.00
2017-11-15T03:22:57.722Z,38.87
2017-11-15T03:25:24.075Z,41.47
2017-11-15T03:27:50.399Z,41.00
2017-11-15T03:30:16.728Z,39.23
2017-11-15T03:32:43.050Z,38.30
2017-11-15T03:35:09.384Z,40.40
2017-11-15T03:37:35.735Z,39.70
2017-11-15T03:40:02.088Z,38.30
2017-11-15T03:42:29.157Z,37.53
2017-11-15T03:44:56.216Z,36.23
2017-11-15T03:47:22.567Z,31.27
2017-11-15T03:49:48.922Z,32.83
2017-11-15T03:52:15.259Z,33.30
2017-11-15T03:54:41.626Z,32.20
2017-11-15T03:57:08.687Z,30.80
2017-11-15T03:59:35.728Z,29.97
2017-11-15T04:02:02.796Z,26.90
2017-11-15T04:04:29.214Z,29.03
2017-11-15T04:06:55.551Z,30.73
2017-11-15T04:09:21.936Z,30.00
2017-11-15T04:11:50.075Z,30.57
2017-11-15T04:14:16.438Z,29.70
2017-11-15T04:16:42.819Z,29.63
2017-11-15T04:19:09.214Z,30.30
2017-11-15T04:21:35.583Z,28.30
2017-11-15T04:24:01.920Z,29.40
2017-11-15T04:26:28.340Z,29.33
2017-11-15T04:28:54.651Z,31.67
2017-11-15T04:31:20.964Z,31.40
2017-11-15T04:33:47.307Z,28.90
2017-11-15T04:36:13.624Z,28.60
2017-11-15T04:38:39.941Z,28.90
2017-11-15T04:41:06.266Z,27.97
2017-11-15T04:43:32.617Z,30.80
2017-11-15T04:45:58.965Z,30.43
2017-11-15T04:48:26.060Z,30.27
2017-11-15T04:50:52.357Z,29.87
2017-11-15T04:53:19.402Z,30.27
2017-11-15T04:55:45.706Z,30.50
2017-11-15T04:58:12.036Z,27.53
2017-11-15T05:00:38.367Z,27.87
2017-11-15T05:03:05.505Z,28.07
2017-11-15T05:05:31.835Z,30.17
2017-11-15T05:07:58.201Z,28.57
2017-11-15T05:10:25.248Z,29.20
2017-11-15T05:12:51.576Z,29.57
2017-11-15T05:15:18.620Z,27.27
2017-11-15T05:17:45.708Z,28.37
2017-11-15T05:20:12.059Z,28.80
2017-11-15T05:22:38.405Z,28.23
2017-11-15T05:25:04.745Z,26.87
2017-11-15T05:27:31.088Z,28.60
2017-11-15T05:29:58.165Z,27.47
2017-11-15T05:32:24.511Z,26.60
2017-11-15T05:34:50.864Z,26.67
2017-11-15T05:37:17.170Z,28.47
2017-11-15T05:39:43.504Z,26.93
2017-11-15T05:42:09.807Z,28.33
2017-11-15T05:44:36.128Z,29.10
2017-11-15T05:47:03.201Z,29.90
2017-11-15T05:49:29.523Z,26.30
2017-11-15T05:51:55.826Z,26.50
2017-11-15T05:54:22.895Z,27.93
2017-11-15T05:56:49.233Z,28.77
2017-11-15T05:59:15.561Z,29.20
2017-11-15T06:01:41.883Z,27.80
2017-11-15T06:04:08.213Z,27.53
2017-11-15T06:06:34.529Z,27.33
2017-11-15T06:09:01.608Z,31.43
2017-11-15T06:11:28.007Z,29.30
2017-11-15T06:13:54.385Z,29.00
2017-11-15T06:16:20.734Z,30.07
2017-11-15T06:18:47.127Z,30.77
2017-11-15T06:21:13.340Z,29.10
2017-11-15T06:23:39.752Z,29.87
2017-11-15T06:26:06.080Z,30.77
2017-11-15T06:28:33.257Z,29.27
2017-11-15T06:30:59.499Z,31.23
2017-11-15T06:33:25.817Z,32.30
2017-11-15T06:35:52.256Z,28.07
2017-11-15T06:38:18.492Z,29.10
2017-11-15T06:40:44.851Z,28.40
2017-11-15T06:43:11.983Z,29.20
2017-11-15T06:45:38.333Z,28.07
2017-11-15T06:48:04.651Z,27.33
2017-11-15T06:50:30.974Z,28.50
2017-11-15T06:52:57.292Z,29.30
2017-11-15T06:55:23.634Z,28.10
2017-11-15T06:57:49.951Z,28.67
2017-11-15T07:00:16.524Z,30.07
2017-11-15T07:02:42.852Z,27.97
2017-11-15T07:05:09.183Z,28.90
2017-11-15T07:07:35.480Z,29.43
2017-11-15T07:10:01.845Z,28.00
2017-11-15T07:12:28.181Z,29.30
2017-11-15T07:14:54.509Z,27.10
2017-11-15T07:17:21.613Z,26.57
2017-11-15T07:19:47.964Z,24.93
2017-11-15T07:22:14.281Z,26.10
2017-11-15T07:24:40.701Z,25.00
2017-11-15T07:27:07.040Z,23.50
2017-11-15T07:29:33.420Z,24.03
2017-11-15T07:31:59.742Z,26.63
2017-11-15T07:34:26.065Z,24.30
2017-11-15T07:36:52.449Z,24.27
2017-11-15T07:39:18.932Z,23.83
2017-11-15T07:41:45.261Z,24.40
2017-11-15T07:44:11.608Z,26.03
2017-11-15T07:46:37.960Z,24.80
2017-11-15T07:49:05.019Z,25.30
2017-11-15T07:51:31.380Z,28.60
2017-11-15T07:53:57.754Z,27.77
2017-11-15T07:56:24.093Z,26.67
2017-11-15T07:58:50.448Z,26.50
2017-11-15T08:01:16.787Z,27.30
2017-11-15T08:03:43.141Z,26.80
2017-11-15T08:06:09.476Z,26.93
2017-11-15T08:08:35.822Z,29.27
2017-11-15T08:11:02.167Z,27.67
2017-11-15T08:13:29.251Z,30.37
2017-11-15T08:15:55.569Z,29.90
2017-11-15T08:18:21.917Z,28.60
2017-11-15T08:20:48.221Z,30.00
2017-11-15T08:23:15.283Z,29.93
2017-11-15T08:25:41.623Z,29.30
2017-11-15T08:28:07.972Z,29.73
2017-11-15T08:30:34.303Z,27.37
2017-11-15T08:33:00.628Z,29.37
2017-11-15T08:35:26.963Z,29.80
2017-11-15T08:37:53.300Z,30.30
2017-11-15T08:40:19.627Z,30.10
2017-11-15T08:42:45.988Z,30.70
2017-11-15T08:45:12.332Z,28.50
2017-11-15T08:47:38.691Z,29.60
2017-11-15T08:50:05.045Z,29.83
2017-11-15T08:52:31.422Z,30.27
2017-11-15T08:54:57.825Z,29.70
2017-11-15T08:57:24.216Z,30.00
2017-11-15T08:59:50.582Z,30.10
2017-11-15T09:02:16.967Z,28.30
2017-11-15T09:04:43.346Z,27.87
2017-11-15T09:07:09.727Z,31.37
2017-11-15T09:09:36.100Z,31.23
2017-11-15T09:12:02.458Z,31.90
2017-11-15T09:14:28.836Z,30.30
2017-11-15T09:16:55.296Z,30.60
2017-11-15T09:19:21.719Z,27.50
2017-11-15T09:21:48.137Z,31.50
2017-11-15T09:24:14.492Z,28.17
2017-11-15T09:26:40.854Z,27.80
2017-11-15T09:29:08.054Z,27.20
2017-11-15T09:31:35.200Z,26.10
2017-11-15T09:34:01.712Z,25.40
2017-11-15T09:36:28.069Z,25.73
2017-11-15T09:38:54.422Z,22.70
2017-11-15T09:41:20.757Z,24.50
2017-11-15T09:43:47.145Z,22.40
2017-11-15T09:46:13.517Z,23.70
2017-11-15T09:48:39.874Z,23.60
2017-11-15T09:51:06.298Z,24.83
2017-11-15T09:53:32.689Z,23.60
2017-11-15T09:55:59.071Z,22.00
2017-11-15T09:58:25.448Z,19.93
2017-11-15T10:00:51.828Z,20.53
2017-11-15T10:03:18.202Z,19.73
2017-11-15T10:05:44.618Z,18.93
2017-11-15T10:08:11.714Z,18.67
2017-11-15T10:10:38.069Z,18.67
2017-11-15T10:13:05.176Z,19.00
2017-11-15T10:15:31.512Z,18.77
2017-11-15T10:17:57.864Z,18.17
2017-11-15T10:20:24.214Z,17.47
2017-11-15T10:22:50.561Z,17.30
2017-11-15T10:25:16.886Z,18.60
2017-11-15T10:27:43.956Z,17.60
2017-11-15T10:30:10.317Z,17.10
2017-11-15T10:32:36.635Z,17.10
2017-11-15T10:35:02.975Z,17.23
2017-11-15T10:37:29.295Z,17.40
2017-11-15T10:39:55.665Z,16.50
2017-11-15T10:42:22.015Z,15.73
2017-11-15T10:44:48.324Z,15.13
2017-11-15T10:47:14.738Z,15.13
2017-11-15T10:49:41.067Z,15.27
2017-11-15T10:52:07.466Z,16.33
2017-11-15T10:54:33.804Z,16.03
2017-11-15T10:57:00.158Z,15.73
2017-11-15T10:59:26.492Z,16.10
2017-11-15T11:01:52.852Z,17.00
2017-11-15T11:04:19.979Z,18.00
2017-11-15T11:06:46.358Z,17.57
2017-11-15T11:09:12.719Z,16.37
2017-11-15T11:11:39.107Z,17.90
2017-11-15T11:14:06.214Z,18.10
2017-11-15T11:16:32.604Z,15.90
2017-11-15T11:18:59.725Z,17.73
2017-11-15T11:21:26.108Z,17.63
2017-11-15T11:23:52.482Z,18.00
2017-11-15T11:26:19.637Z,17.40
2017-11-15T11:28:46.795Z,17.13
2017-11-15T11:31:13.921Z,16.90
2017-11-15T11:33:40.266Z,17.20
2017-11-15T11:36:06.667Z,18.23
2017-11-15T11:38:33.082Z,18.20
2017-11-15T11:40:59.408Z,20.63
2017-11-15T11:43:26.795Z,20.20
2017-11-15T11:45:53.131Z,20.60
2017-11-15T11:48:19.496Z,20.63
2017-11-15T11:50:46.563Z,20.13
2017-11-15T11:53:13.638Z,20.00
2017-11-15T11:55:39.978Z,18.97
2017-11-15T11:58:06.335Z,19.30
2017-11-15T12:00:32.679Z,21.00
2017-11-15T12:02:59.788Z,19.77
2017-11-15T12:05:26.122Z,20.63
2017-11-15T12:07:52.499Z,20.10
2017-11-15T12:10:19.590Z,20.00
2017-11-15T12:12:45.926Z,21.43
2017-11-15T12:15:12.278Z,20.60
2017-11-15T12:17:38.629Z,22.43
2017-11-15T12:20:06.041Z,21.20
2017-11-15T12:22:32.379Z,22.13
2017-11-15T12:24:58.740Z,24.20
2017-11-15T12:27:25.869Z,21.73
2017-11-15T12:29:52.228Z,21.87
2017-11-15T12:32:18.568Z,22.33
2017-11-15T12:34:44.955Z,20.63
2017-11-15T12:37:11.324Z,21.87
2017-11-15T12:39:37.680Z,19.90
2017-11-15T12:42:04.083Z,20.80
2017-11-15T12:44:30.408Z,21.10
2017-11-15T12:46:57.503Z,20.57
2017-11-15T12:49:23.887Z,19.10
2017-11-15T12:51:50.990Z,19.70
2017-11-15T12:54:17.358Z,19.73
2017-11-15T12:56:43.731Z,21.00
2017-11-15T12:59:10.071Z,19.57
2017-11-15T13:01:36.388Z,19.93
2017-11-15T13:04:03.502Z,19.47
2017-11-15T13:06:29.824Z,19.70
2017-11-15T13:08:56.155Z,20.07
2017-11-15T13:11:22.472Z,18.70
2017-11-15T13:13:48.849Z,21.97
2017-11-15T13:16:15.937Z,20.57
2017-11-15T13:18:42.325Z,21.63
2017-11-15T13:21:09.432Z,20.87
2017-11-15T13:23:35.795Z,20.50
2017-11-15T13:26:02.148Z,22.30
2017-11-15T13:28:28.524Z,21.77
2017-11-15T13:30:54.884Z,22.63
2017-11-15T13:33:21.258Z,23.60
2017-11-15T13:35:47.612Z,23.37
2017-11-15T13:38:14.723Z,22.50
2017-11-15T13:40:41.080Z,22.43
2017-11-15T13:43:07.427Z,23.70
2017-11-15T13:45:33.778Z,23.80
2017-11-15T13:48:00.893Z,22.40
2017-11-15T13:50:27.208Z,23.60
2017-11-15T13:52:53.533Z,24.70
2017-11-15T13:55:19.853Z,22.80
2017-11-15T13:57:46.904Z,23.40
2017-11-15T14:00:13.954Z,23.93
2017-11-15T14:02:40.305Z,23.20
2017-11-15T14:05:06.641Z,24.90
2017-11-15T14:07:32.986Z,24.00
2017-11-15T14:09:59.332Z,23.30
2017-11-15T14:12:25.635Z,24.20
2017-11-15T14:14:51.985Z,24.17
2017-11-15T14:17:18.316Z,24.70
2017-11-15T14:19:44.650Z,24.87
2017-11-15T14:22:11.750Z,24.60
2017-11-15T14:24:38.127Z,25.20
2017-11-15T14:27:04.464Z,26.00
2017-11-15T14:29:30.826Z,25.90
2017-11-15T14:31:57.184Z,26.10
2017-11-15T14:34:23.525Z,24.00
2017-11-15T14:36:49.889Z,25.63
2017-11-15T14:39:16.990Z,24.73
2017-11-15T14:41:43.330Z,25.83
2017-11-15T14:44:09.696Z,26.80
2017-11-15T14:46:36.841Z,25.33
2017-11-15T14:49:03.159Z,26.03
2017-11-15T14:51:29.472Z,27.57
2017-11-15T14:53:55.844Z,28.00
2017-11-15T14:56:22.934Z,26.20
2017-11-15T14:58:49.260Z,25.90
2017-11-15T15:01:15.615Z,31.13
2017-11-15T15:03:41.995Z,31.37
2017-11-15T15:06:08.404Z,30.13
2017-11-15T15:08:34.749Z,29.40
2017-11-15T15:11:01.080Z,29.50
2017-11-15T15:13:27.409Z,29.17
2017-11-15T15:15:53.743Z,32.33
2017-11-15T15:18:20.826Z,30.20
2017-11-15T15:20:47.148Z,33.80
2017-11-15T15:23:13.528Z,33.27
2017-11-15T15:25:39.869Z,34.40
2017-11-15T15:28:06.211Z,34.57
2017-11-15T15:30:32.516Z,35.17
2017-11-15T15:32:58.831Z,34.67
2017-11-15T15:35:25.170Z,33.27
2017-11-15T15:37:51.949Z,37.90
2017-11-15T15:40:18.767Z,33.17
2017-11-15T15:42:45.667Z,37.07
2017-11-15T15:45:12.220Z,32.10
2017-11-15T15:47:38.555Z,33.30
2017-11-15T15:50:04.908Z,31.37
2017-11-15T15:52:31.252Z,30.13
2017-11-15T15:54:57.595Z,33.33
2017-11-15T15:57:24.178Z,36.23
2017-11-15T15:59:50.562Z,36.70
2017-11-15T16:02:16.884Z,40.10
2017-11-15T16:04:43.976Z,39.50
2017-11-15T16:07:10.295Z,37.73
2017-11-15T16:09:36.613Z,35.00
2017-11-15T16:12:03.707Z,38.33
2017-11-15T16:14:30.063Z,39.80
2017-11-15T16:16:56.375Z,40.40
2017-11-15T16:19:22.700Z,35.20
2017-11-15T16:21:49.008Z,34.03
2017-11-15T16:24:15.329Z,35.00
2017-11-15T16:26:41.643Z,35.07
2017-11-15T16:29:08.714Z,31.90
2017-11-15T16:31:35.029Z,31.43
2017-11-15T16:34:02.087Z,30.43
2017-11-15T16:36:28.480Z,29.67
2017-11-15T16:38:55.904Z,30.77
2017-11-15T16:41:22.369Z,29.20
2017-11-15T16:43:48.881Z,33.70
2017-11-15T16:46:15.236Z,33.57
2017-11-15T16:48:42.319Z,34.23
2017-11-15T16:51:08.760Z,30.80
2017-11-15T16:53:35.113Z,29.90
2017-11-15T16:56:01.486Z,28.83
2017-11-15T16:58:27.787Z,27.37
2017-11-15T17:00:54.103Z,29.17
2017-11-15T17:03:20.443Z,30.10
2017-11-15T17:05:46.809Z,30.00
2017-11-15T17:08:13.859Z,28.07
2017-11-15T17:10:40.919Z,29.93
2017-11-15T17:13:07.978Z,28.60
2017-11-15T17:15:34.310Z,29.60
2017-11-15T17:18:00.615Z,28.13
2017-11-15T17:20:27.672Z,29.70
2017-11-15T17:22:54.757Z,29.67
2017-11-15T17:25:21.095Z,30.50
2017-11-15T17:27:47.424Z,36.10
2017-11-15T17:30:13.810Z,34.90
2017-11-15T17:32:40.152Z,35.53
2017-11-15T17:35:06.624Z,38.37
2017-11-15T17:37:33.047Z,39.10
2017-11-15T17:39:59.689Z,34.20
2017-11-15T17:42:27.222Z,35.07
2017-11-15T17:44:54.174Z,31.57
2017-11-15T17:47:20.954Z,31.47
2017-11-15T17:49:47.430Z,31.47
2017-11-15T17:52:13.992Z,31.23
2017-11-15T17:54:41.035Z,29.20
2017-11-15T17:57:07.917Z,29.80
2017-11-15T17:59:35.929Z,29.83
2017-11-15T18:02:02.729Z,31.20
2017-11-15T18:04:30.508Z,30.90
2017-11-15T18:06:57.539Z,30.97
2017-11-15T18:09:24.592Z,30.00
2017-11-15T18:11:51.318Z,29.40
2017-11-15T18:14:18.389Z,31.23
2017-11-15T18:16:44.808Z,29.77
2017-11-15T18:19:11.211Z,29.43
2017-11-15T18:21:37.586Z,31.70
2017-11-15T18:24:04.678Z,31.60
2017-11-15T18:26:31.059Z,32.17
2017-11-15T18:28:57.390Z,31.73
2017-11-15T18:31:23.721Z,31.43
2017-11-15T18:33:50.054Z,29.90
2017-11-15T18:36:16.462Z,30.60
2017-11-15T18:38:42.772Z,29.83
2017-11-15T18:41:09.201Z,30.87
2017-11-15T18:43:36.426Z,30.50
2017-11-15T18:46:03.575Z,30.40
2017-11-15T18:48:29.977Z,30.03
2017-11-15T18:50:57.069Z,30.10
2017-11-15T18:53:23.419Z,28.20
2017-11-15T18:55:49.766Z,29.57
2017-11-15T18:58:16.081Z,30.43
2017-11-15T19:00:42.466Z,29.37
2017-11-15T19:03:09.134Z,27.80
2017-11-15T19:05:35.508Z,29.23
2017-11-15T19:08:02.130Z,30.27
2017-11-15T19:10:28.579Z,31.30
2017-11-15T19:12:55.872Z,30.97
2017-11-15T19:15:22.250Z,30.00
2017-11-15T19:17:48.589Z,29.80
2017-11-15T19:20:14.965Z,30.37
2017-11-15T19:22:41.659Z,29.97
2017-11-15T19:25:08.666Z,30.77
2017-11-15T19:27:35.083Z,34.53
2017-11-15T19:30:01.468Z,32.77
2017-11-15T19:32:27.829Z,32.57
2017-11-15T19:34:54.930Z,33.30
2017-11-15T19:37:21.334Z,33.03
2017-11-15T19:39:47.767Z,30.53
2017-11-15T19:42:14.146Z,34.70
2017-11-15T19:44:40.594Z,32.30
2017-11-15T19:47:07.021Z,31.00
2017-11-15T19:49:33.541Z,28.93
2017-11-15T19:51:59.977Z,31.07
2017-11-15T19:54:26.392Z,28.43
2017-11-15T19:56:52.840Z,29.37
2017-11-15T19:59:19.203Z,29.47
2017-11-15T20:01:45.605Z,28.77
2017-11-15T20:04:13.162Z,29.30
2017-11-15T20:06:40.425Z,30.17
2017-11-15T20:09:06.950Z,29.90
2017-11-15T20:11:33.453Z,30.67
2017-11-15T20:13:59.832Z,29.53
2017-11-15T20:16:26.220Z,28.47
2017-11-15T20:18:52.886Z,27.70
2017-11-15T20:21:19.361Z,29.67
2017-11-15T20:23:45.854Z,29.27
2017-11-15T20:26:13.078Z,28.17
2017-11-15T20:28:39.441Z,30.53
2017-11-15T20:31:06.645Z,29.80
2017-11-15T20:33:33.250Z,29.87
2017-11-15T20:35:59.785Z,29.07
2017-11-15T20:38:26.251Z,29.73
2017-11-15T20:40:52.944Z,30.20
2017-11-15T20:43:20.256Z,29.80
2017-11-15T20:45:47.131Z,32.40
2017-11-15T20:48:14.386Z,30.93
2017-11-15T20:50:40.754Z,32.70
2017-11-15T20:53:07.014Z,31.23
2017-11-15T20:55:33.425Z,30.60
2017-11-15T20:57:59.662Z,31.47
2017-11-15T21:00:26.572Z,27.50
2017-11-15T21:02:52.837Z,28.03
2017-11-15T21:05:19.927Z,30.27
2017-11-15T21:07:46.121Z,28.57
2017-11-15T21:10:12.500Z,28.80
2017-11-15T21:12:39.538Z,29.30
2017-11-15T21:15:06.916Z,32.77
2017-11-15T21:17:34.319Z,31.20
2017-11-15T21:20:01.057Z,32.20
2017-11-15T21:22:27.716Z,35.10
2017-11-15T21:24:54.456Z,31.73
2017-11-15T21:27:21.685Z,33.50
2017-11-15T21:29:48.162Z,32.63
2017-11-15T21:32:14.607Z,31.10
2017-11-15T21:34:40.990Z,30.70
2017-11-15T21:37:07.407Z,29.50
2017-11-15T21:39:34.649Z,30.70
2017-11-15T21:42:01.045Z,33.07
2017-11-15T21:44:28.158Z,28.07
2017-11-15T21:46:54.565Z,30.97
2017-11-15T21:49:20.987Z,28.90
2017-11-15T21:51:47.374Z,33.40
2017-11-15T21:54:14.477Z,30.67
2017-11-15T21:56:40.834Z,33.07
2017-11-15T21:59:07.195Z,29.43
2017-11-15T22:01:33.538Z,30.73
2017-11-15T22:03:59.905Z,30.80
2017-11-15T22:06:26.227Z,25.13
2017-11-15T22:08:53.635Z,26.40
2017-11-15T22:11:20.768Z,26.73
2017-11-15T22:13:47.115Z,29.10
2017-11-15T22:16:13.417Z,27.37
2017-11-15T22:18:39.704Z,27.10
2017-11-15T22:21:06.766Z,27.33
2017-11-15T22:23:33.104Z,27.87
2017-11-15T22:25:59.432Z,27.57
2017-11-15T22:28:25.765Z,31.17
2017-11-15T22:30:52.086Z,31.93
2017-11-15T22:33:19.435Z,30.47
2017-11-15T22:35:45.894Z,30.17
2017-11-15T22:38:12.214Z,26.50
2017-11-15T22:40:38.560Z,28.63
2017-11-15T22:43:04.884Z,28.53
2017-11-15T22:45:31.200Z,27.63
2017-11-15T22:47:57.559Z,29.10
2017-11-15T22:50:23.877Z,31.07
2017-11-15T22:52:50.232Z,31.03
2017-11-15T22:55:16.841Z,29.47
2017-11-15T22:57:43.166Z,27.20
2017-11-15T23:00:09.485Z,28.60
2017-11-15T23:02:35.836Z,30.43
2017-11-15T23:05:02.143Z,30.90
2017-11-15T23:07:28.470Z,28.87
2017-11-15T23:09:54.795Z,30.83
2017-11-15T23:12:21.129Z,28.30
2017-11-15T23:14:47.458Z,25.97
2017-11-15T23:17:14.499Z,26.60
2017-11-15T23:19:41.577Z,29.50
2017-11-15T23:22:07.921Z,27.47
2017-11-15T23:24:34.265Z,29.33
2017-11-15T23:27:00.565Z,27.23
2017-11-15T23:29:26.924Z,30.10
2017-11-15T23:31:53.274Z,28.37
2017-11-15T23:34:19.596Z,29.40
2017-11-15T23:36:45.925Z,28.93
2017-11-15T23:39:13.770Z,30.50
2017-11-15T23:41:40.125Z,31.97
2017-11-15T23:44:06.978Z,31.23
2017-11-15T23:46:33.301Z,29.33
2017-11-15T23:48:59.606Z,27.80
2017-11-15T23:51:25.991Z,27.47
2017-11-15T23:53:53.028Z,27.90
2017-11-15T23:56:20.087Z,27.33
2017-11-15T23:58:47.154Z,24.87
